Time;durP1;ratioP1;P1;durP2;ratioP2;P2;SDS_P1;SDS_P2;PMS_P1;PMS_P2;Temp;Humidity;BMP_temperature;BMP_pressure;BME280_temperature;BME280_humidity;BME280_pressure;Samples;Min_cycle;Max_cycle;Signal;HPM_P1;HPM_P2
2023/08/06 00:03:44;;;;;;;5.82;3.15;;;;;;;;;;7367660;19;20009;-72
2023/08/06 00:06:26;;;;;;;5.55;3.60;;;;;;;;;;7389304;19;20011;-70
2023/08/06 00:09:38;;;;;;;6.40;3.25;;;;;;;;;;7369021;19;20009;-72
2023/08/06 00:12:07;;;;;;;5.70;2.97;;;;;;;;;;7389413;19;19995;-71
2023/08/06 00:14:38;;;;;;;7.80;3.42;;;;;;;;;;7365195;19;20036;-72
2023/08/06 00:17:27;;;;;;;5.55;3.47;;;;;;;;;;7364049;19;20069;-71
2023/08/06 00:20:13;;;;;;;5.18;3.10;;;;;;;;;;7391074;19;20006;-72
2023/08/06 00:22:43;;;;;;;5.10;3.38;;;;;;;;;;7354817;19;20430;-72
2023/08/06 00:25:10;;;;;;;5.78;3.60;;;;;;;;;;7363269;19;20487;-72
2023/08/06 00:27:35;;;;;;;5.70;3.42;;;;;;;;;;7365995;19;20007;-71
2023/08/06 00:30:18;;;;;;;5.55;3.63;;;;;;;;;;7393512;19;20032;-71
2023/08/06 00:33:23;;;;;;;8.88;4.00;;;;;;;;;;7374636;19;20043;-71
2023/08/06 00:35:51;;;;;;;6.82;3.85;;;;;;;;;;7372982;19;20070;-72
2023/08/06 00:38:25;;;;;;;6.28;3.80;;;;;;;;;;7373973;19;20010;-70
2023/08/06 00:41:24;;;;;;;7.10;3.38;;;;;;;;;;7373401;19;20006;-72
2023/08/06 00:43:49;;;;;;;6.95;3.80;;;;;;;;;;7349189;19;20081;-72
2023/08/06 00:46:22;;;;;;;5.93;3.72;;;;;;;;;;7373668;19;20010;-72
2023/08/06 00:48:52;;;;;;;6.65;3.85;;;;;;;;;;7371793;19;20380;-72
2023/08/06 00:51:26;;;;;;;5.40;3.42;;;;;;;;;;7374457;19;20338;-73
2023/08/06 00:53:53;;;;;;;7.45;3.58;;;;;;;;;;7393884;19;19999;-71
2023/08/06 00:56:41;;;;;;;7.25;3.20;;;;;;;;;;7374155;19;20003;-70
2023/08/06 00:59:07;;;;;;;7.13;3.45;;;;;;;;;;7371596;19;20011;-72
2023/08/06 01:02:06;;;;;;;7.15;3.70;;;;;;;;;;7372323;19;20480;-71
2023/08/06 01:04:54;;;;;;;5.43;3.28;;;;;;;;;;7371135;19;20599;-72
2023/08/06 01:07:58;;;;;;;5.63;3.10;;;;;;;;;;7368684;19;20096;-71
2023/08/06 01:10:51;;;;;;;7.15;3.70;;;;;;;;;;7371005;19;20342;-72
2023/08/06 01:14:25;;;;;;;5.60;3.45;;;;;;;;;;7368157;19;20006;-72
2023/08/06 01:16:58;;;;;;;8.18;3.50;;;;;;;;;;7371183;19;20010;-72
2023/08/06 01:19:25;;;;;;;7.40;3.20;;;;;;;;;;7371418;19;20050;-72
2023/08/06 01:22:04;;;;;;;7.80;3.83;;;;;;;;;;7371279;19;20014;-72
2023/08/06 01:24:35;;;;;;;6.25;3.63;;;;;;;;;;7371351;19;20017;-72
2023/08/06 01:27:29;;;;;;;6.13;3.00;;;;;;;;;;7394582;19;20022;-72
2023/08/06 01:30:06;;;;;;;6.30;3.65;;;;;;;;;;7367285;19;20014;-72
2023/08/06 01:32:35;;;;;;;6.50;3.13;;;;;;;;;;7396354;19;20011;-72
2023/08/06 01:35:04;;;;;;;5.22;3.20;;;;;;;;;;7369621;19;20027;-72
2023/08/06 01:37:29;;;;;;;8.55;3.72;;;;;;;;;;7372955;19;20034;-72
2023/08/06 01:39:55;;;;;;;5.43;3.17;;;;;;;;;;7371902;19;20010;-71
2023/08/06 01:42:20;;;;;;;7.22;3.60;;;;;;;;;;7368870;19;19988;-72
2023/08/06 01:44:45;;;;;;;8.00;3.53;;;;;;;;;;7391567;19;20005;-71
2023/08/06 01:47:11;;;;;;;5.03;3.40;;;;;;;;;;7372351;19;20388;-71
2023/08/06 01:49:37;;;;;;;6.03;3.50;;;;;;;;;;7371929;19;20498;-72
2023/08/06 01:52:03;;;;;;;6.47;3.40;;;;;;;;;;7370842;19;20020;-72
2023/08/06 01:54:31;;;;;;;6.13;3.45;;;;;;;;;;7370227;19;20006;-72
2023/08/06 01:56:58;;;;;;;5.88;3.40;;;;;;;;;;7394696;19;20117;-72
2023/08/06 01:59:23;;;;;;;8.60;3.70;;;;;;;;;;7375901;19;20364;-72
2023/08/06 02:01:49;;;;;;;6.45;3.53;;;;;;;;;;7383923;19;20115;-72
2023/08/06 02:04:19;;;;;;;7.63;3.35;;;;;;;;;;7381027;19;20025;-71
2023/08/06 02:06:46;;;;;;;5.43;3.08;;;;;;;;;;7375226;19;20382;-71
2023/08/06 02:09:13;;;;;;;5.45;2.97;;;;;;;;;;7370563;19;20037;-71
2023/08/06 02:11:41;;;;;;;5.22;3.17;;;;;;;;;;7393523;19;20003;-72
2023/08/06 02:14:06;;;;;;;6.32;3.35;;;;;;;;;;7369061;19;20010;-71
2023/08/06 02:16:40;;;;;;;6.97;3.80;;;;;;;;;;7369961;19;20038;-71
2023/08/06 02:19:05;;;;;;;6.65;3.30;;;;;;;;;;7366515;19;20350;-71
2023/08/06 02:21:55;;;;;;;6.03;3.55;;;;;;;;;;7370258;19;20014;-71
2023/08/06 02:24:20;;;;;;;5.78;3.70;;;;;;;;;;7368818;19;20604;-71
2023/08/06 02:26:48;;;;;;;5.68;3.15;;;;;;;;;;7405390;19;19999;-72
2023/08/06 02:29:21;;;;;;;6.35;3.40;;;;;;;;;;7389727;19;20035;-71
2023/08/06 02:31:47;;;;;;;5.88;3.22;;;;;;;;;;7377143;19;20646;-72
2023/08/06 02:34:12;;;;;;;7.07;3.58;;;;;;;;;;7349100;19;20039;-72
2023/08/06 02:36:48;;;;;;;7.50;3.60;;;;;;;;;;7361375;19;20014;-71
2023/08/06 02:39:14;;;;;;;5.40;3.42;;;;;;;;;;7371244;19;20031;-72
2023/08/06 02:41:39;;;;;;;4.93;3.28;;;;;;;;;;7392662;19;19995;-71
2023/08/06 02:44:06;;;;;;;5.53;3.47;;;;;;;;;;7368675;19;20026;-72
2023/08/06 02:46:37;;;;;;;5.70;3.35;;;;;;;;;;7369507;19;20006;-71
2023/08/06 02:49:02;;;;;;;8.00;3.22;;;;;;;;;;7366668;19;20543;-71
2023/08/06 02:51:28;;;;;;;5.82;3.28;;;;;;;;;;7370562;19;20002;-72
2023/08/06 02:53:54;;;;;;;5.90;3.40;;;;;;;;;;7389383;19;20010;-72
2023/08/06 02:56:34;;;;;;;5.18;3.20;;;;;;;;;;7369422;19;20007;-71
2023/08/06 02:59:05;;;;;;;;;;;;;;;;;;7369862;19;19998;-71
2023/08/06 03:01:48;;;;;;;10.30;2.88;;;;;;;;;;7369390;19;19919;-73
2023/08/06 03:08:16;;;;;;;5.82;2.85;;;;;;;;;;7367367;19;20031;-72
2023/08/06 03:11:18;;;;;;;4.72;2.72;;;;;;;;;;7365904;19;20018;-72
2023/08/06 03:14:11;;;;;;;6.38;2.90;;;;;;;;;;7364623;19;20504;-72
2023/08/06 03:17:02;;;;;;;4.38;2.70;;;;;;;;;;7366000;19;20018;-71
2023/08/06 03:19:31;;;;;;;4.72;2.88;;;;;;;;;;7368231;19;20079;-71
2023/08/06 03:22:21;;;;;;;5.88;2.90;;;;;;;;;;7367955;19;20007;-71
2023/08/06 03:24:52;;;;;;;5.85;2.65;;;;;;;;;;7367190;19;20022;-71
2023/08/06 03:27:17;;;;;;;5.90;3.13;;;;;;;;;;7370184;19;20006;-71
2023/08/06 03:29:42;;;;;;;5.40;3.20;;;;;;;;;;7390799;19;20118;-72
2023/08/06 03:32:08;;;;;;;7.05;3.30;;;;;;;;;;7368944;19;20010;-71
2023/08/06 03:34:33;;;;;;;5.18;2.85;;;;;;;;;;7366085;19;20015;-71
2023/08/06 03:36:58;;;;;;;4.72;2.80;;;;;;;;;;7369048;19;20006;-71
2023/08/06 03:39:24;;;;;;;5.70;2.80;;;;;;;;;;7367917;19;20556;-70
2023/08/06 03:41:49;;;;;;;8.48;3.10;;;;;;;;;;7388378;19;20009;-71
2023/08/06 03:44:14;;;;;;;5.68;3.00;;;;;;;;;;7366859;19;20009;-70
2023/08/06 03:46:40;;;;;;;4.90;2.88;;;;;;;;;;7367932;19;20451;-71
2023/08/06 03:49:05;;;;;;;5.45;2.90;;;;;;;;;;7367680;19;20416;-71
2023/08/06 03:51:30;;;;;;;9.15;2.92;;;;;;;;;;7368290;19;20017;-71
2023/08/06 03:53:55;;;;;;;7.00;3.00;;;;;;;;;;7387533;19;20006;-72
2023/08/06 03:56:21;;;;;;;5.78;2.60;;;;;;;;;;7367864;19;20094;-71
2023/08/06 03:58:46;;;;;;;5.85;2.67;;;;;;;;;;7367651;19;20035;-71
2023/08/06 04:01:11;;;;;;;6.07;2.55;;;;;;;;;;7367884;19;20007;-71
2023/08/06 04:03:37;;;;;;;5.00;2.15;;;;;;;;;;7365537;19;20018;-71
2023/08/06 04:06:03;;;;;;;5.43;2.20;;;;;;;;;;7373230;19;20007;-71
2023/08/06 04:08:28;;;;;;;7.22;2.40;;;;;;;;;;7397750;19;20013;-70
2023/08/06 04:10:53;;;;;;;4.75;2.30;;;;;;;;;;7377113;19;19998;-71
2023/08/06 04:13:20;;;;;;;4.00;2.33;;;;;;;;;;7376172;19;20002;-71
2023/08/06 04:15:45;;;;;;;7.50;2.20;;;;;;;;;;7376031;19;20002;-71
2023/08/06 04:18:11;;;;;;;3.78;2.25;;;;;;;;;;7372656;19;20023;-71
2023/08/06 04:20:46;;;;;;;7.18;2.10;;;;;;;;;;7395049;19;20036;-71
2023/08/06 04:23:12;;;;;;;4.07;2.15;;;;;;;;;;7371119;19;20048;-71
2023/08/06 04:25:38;;;;;;;4.60;2.17;;;;;;;;;;7374872;19;20003;-71
2023/08/06 04:28:03;;;;;;;4.45;2.10;;;;;;;;;;7375363;19;20402;-72
2023/08/06 04:30:28;;;;;;;4.43;2.50;;;;;;;;;;7374691;19;20016;-71
2023/08/06 04:32:56;;;;;;;4.70;1.90;;;;;;;;;;7396494;19;19999;-72
2023/08/06 04:35:21;;;;;;;5.22;1.80;;;;;;;;;;7371739;19;20118;-72
2023/08/06 04:37:46;;;;;;;2.75;1.70;;;;;;;;;;7375291;19;20022;-73
2023/08/06 04:40:13;;;;;;;2.95;1.83;;;;;;;;;;7375106;19;20477;-72
2023/08/06 04:42:38;;;;;;;3.72;1.75;;;;;;;;;;7374230;19;20014;-72
2023/08/06 04:45:04;;;;;;;4.22;1.60;;;;;;;;;;7370894;19;20007;-71
2023/08/06 04:47:29;;;;;;;4.40;1.63;;;;;;;;;;7397172;19;20009;-71
2023/08/06 04:49:55;;;;;;;2.05;1.40;;;;;;;;;;7373829;19;20006;-72
2023/08/06 04:52:20;;;;;;;3.17;1.33;;;;;;;;;;7374477;19;20010;-70
2023/08/06 04:54:45;;;;;;;4.68;1.73;;;;;;;;;;7373167;19;20016;-71
2023/08/06 04:57:11;;;;;;;2.97;1.30;;;;;;;;;;7378788;19;20383;-73
2023/08/06 04:59:36;;;;;;;3.42;1.60;;;;;;;;;;7400834;19;20473;-73
2023/08/06 05:02:01;;;;;;;2.25;1.60;;;;;;;;;;7373982;19;20029;-73
2023/08/06 05:04:27;;;;;;;3.58;2.03;;;;;;;;;;7373051;19;20015;-71
2023/08/06 05:06:52;;;;;;;2.95;1.45;;;;;;;;;;7372819;19;20360;-72
2023/08/06 05:09:18;;;;;;;2.88;1.70;;;;;;;;;;7373297;19;19998;-71
2023/08/06 05:11:43;;;;;;;4.03;1.80;;;;;;;;;;7395315;19;20036;-71
2023/08/06 05:14:09;;;;;;;3.85;1.70;;;;;;;;;;7371316;19;20044;-71
2023/08/06 05:16:34;;;;;;;4.05;1.85;;;;;;;;;;7372105;19;20678;-72
2023/08/06 05:18:59;;;;;;;6.75;1.95;;;;;;;;;;7374264;19;20445;-71
2023/08/06 05:21:24;;;;;;;4.40;1.77;;;;;;;;;;7374239;19;20011;-71
2023/08/06 05:23:50;;;;;;;5.03;2.20;;;;;;;;;;7391737;19;20259;-71
2023/08/06 05:26:18;;;;;;;4.03;1.90;;;;;;;;;;7373587;19;20018;-72
2023/08/06 05:28:43;;;;;;;4.50;1.75;;;;;;;;;;7372448;19;20013;-73
2023/08/06 05:31:09;;;;;;;6.05;1.83;;;;;;;;;;7373251;19;20006;-72
2023/08/06 05:33:34;;;;;;;2.72;1.67;;;;;;;;;;7372543;19;20026;-72
2023/08/06 05:35:59;;;;;;;3.83;1.80;;;;;;;;;;7392075;19;20013;-72
2023/08/06 05:38:25;;;;;;;3.95;1.88;;;;;;;;;;7378986;19;20010;-72
2023/08/06 05:40:50;;;;;;;3.40;1.77;;;;;;;;;;7372300;19;20017;-72
2023/08/06 05:43:16;;;;;;;4.35;1.90;;;;;;;;;;7371802;19;20010;-71
2023/08/06 05:45:45;;;;;;;3.00;1.55;;;;;;;;;;7373117;19;20022;-72
2023/08/06 05:48:10;;;;;;;3.83;1.70;;;;;;;;;;7372429;19;20539;-72
2023/08/06 05:50:36;;;;;;;6.70;1.65;;;;;;;;;;7393928;19;19998;-72
2023/08/06 05:53:01;;;;;;;2.72;1.45;;;;;;;;;;7372891;19;20010;-72
2023/08/06 05:55:26;;;;;;;3.58;1.70;;;;;;;;;;7371213;19;20041;-71
2023/08/06 05:57:52;;;;;;;4.03;1.52;;;;;;;;;;7372285;19;20007;-71
2023/08/06 06:00:18;;;;;;;5.55;1.40;;;;;;;;;;7372420;19;20014;-71
2023/08/06 06:02:43;;;;;;;2.22;1.50;;;;;;;;;;7393078;19;20011;-71
2023/08/06 06:05:09;;;;;;;1.15;1.05;;;;;;;;;;7367354;19;20011;-70
2023/08/06 06:07:34;;;;;;;2.72;1.38;;;;;;;;;;7370997;19;20036;-72
2023/08/06 06:10:00;;;;;;;1.38;1.00;;;;;;;;;;7372003;19;20444;-72
2023/08/06 06:12:26;;;;;;;4.32;1.00;;;;;;;;;;7371569;19;20018;-71
2023/08/06 06:14:51;;;;;;;2.17;0.93;;;;;;;;;;7390872;19;20006;-73
2023/08/06 06:17:16;;;;;;;2.55;1.20;;;;;;;;;;7371936;19;20007;-71
2023/08/06 06:19:42;;;;;;;1.38;1.02;;;;;;;;;;7372309;19;20010;-71
2023/08/06 06:22:07;;;;;;;1.17;1.00;;;;;;;;;;7388027;19;20013;-71
2023/08/06 06:24:32;;;;;;;2.28;1.25;;;;;;;;;;7395916;19;19998;-72
2023/08/06 06:26:57;;;;;;;3.17;1.00;;;;;;;;;;7410594;19;20002;-71
2023/08/06 06:29:23;;;;;;;1.15;1.00;;;;;;;;;;7374149;19;20018;-70
2023/08/06 06:31:48;;;;;;;2.30;0.93;;;;;;;;;;7360660;19;20002;-71
2023/08/06 06:34:13;;;;;;;2.40;1.30;;;;;;;;;;7365535;19;20005;-70
2023/08/06 06:36:39;;;;;;;2.47;1.10;;;;;;;;;;7366270;19;20365;-70
2023/08/06 06:39:04;;;;;;;4.50;1.08;;;;;;;;;;7365182;19;20010;-70
2023/08/06 06:41:31;;;;;;;1.73;0.98;;;;;;;;;;7387615;19;20030;-71
2023/08/06 06:43:56;;;;;;;2.80;1.08;;;;;;;;;;7364520;19;20069;-72
2023/08/06 06:46:22;;;;;;;2.47;1.33;;;;;;;;;;7366664;19;20014;-71
2023/08/06 06:48:47;;;;;;;3.08;1.10;;;;;;;;;;7367826;19;20087;-71
2023/08/06 06:51:12;;;;;;;1.10;1.00;;;;;;;;;;7367162;19;20007;-72
2023/08/06 06:53:38;;;;;;;1.70;1.20;;;;;;;;;;7387345;19;20647;-72
2023/08/06 06:56:05;;;;;;;1.98;1.20;;;;;;;;;;7366316;19;20531;-72
2023/08/06 06:58:33;;;;;;;6.70;1.25;;;;;;;;;;7366495;19;20385;-72
2023/08/06 07:00:58;;;;;;;0.80;0.80;;;;;;;;;;7365916;19;19999;-72
2023/08/06 07:03:24;;;;;;;1.23;1.10;;;;;;;;;;7364852;19;20071;-72
2023/08/06 07:05:49;;;;;;;1.67;0.95;;;;;;;;;;7387476;19;19998;-73
2023/08/06 07:08:15;;;;;;;2.70;1.10;;;;;;;;;;7364477;19;20003;-72
2023/08/06 07:10:41;;;;;;;1.90;1.13;;;;;;;;;;7366279;19;20293;-72
2023/08/06 07:13:07;;;;;;;1.00;1.00;;;;;;;;;;7365461;19;20706;-72
2023/08/06 07:15:32;;;;;;;1.20;1.10;;;;;;;;;;7367117;19;20009;-72
2023/08/06 07:17:57;;;;;;;0.98;0.90;;;;;;;;;;7385704;19;20441;-73
2023/08/06 07:20:23;;;;;;;3.13;0.93;;;;;;;;;;7366444;19;20503;-72
2023/08/06 07:22:49;;;;;;;2.35;1.02;;;;;;;;;;7360417;19;20010;-73
2023/08/06 07:25:15;;;;;;;4.13;1.00;;;;;;;;;;7364739;19;20003;-71
2023/08/06 07:27:40;;;;;;;1.77;0.98;;;;;;;;;;7368858;19;20013;-72
2023/08/06 07:30:06;;;;;;;0.95;0.95;;;;;;;;;;7365768;19;20094;-73
2023/08/06 07:32:31;;;;;;;2.13;1.00;;;;;;;;;;7388589;19;20012;-71
2023/08/06 07:35:00;;;;;;;0.60;0.60;;;;;;;;;;7363314;19;19998;-72
2023/08/06 07:37:25;;;;;;;1.60;0.77;;;;;;;;;;7367572;19;20007;-72
2023/08/06 07:39:51;;;;;;;1.58;1.10;;;;;;;;;;7365702;19;20013;-72
2023/08/06 07:42:16;;;;;;;0.95;0.93;;;;;;;;;;7366383;19;20078;-74
2023/08/06 07:44:41;;;;;;;1.02;0.80;;;;;;;;;;7386915;19;20051;-72
2023/08/06 07:47:06;;;;;;;1.52;0.90;;;;;;;;;;7364022;19;20015;-71
2023/08/06 07:49:32;;;;;;;1.45;0.98;;;;;;;;;;7365971;19;20086;-72
2023/08/06 07:51:57;;;;;;;2.25;1.05;;;;;;;;;;7366646;19;20421;-73
2023/08/06 07:54:24;;;;;;;1.30;1.20;;;;;;;;;;7366233;19;19998;-72
2023/08/06 07:56:49;;;;;;;2.10;0.90;;;;;;;;;;7387794;19;20467;-72
2023/08/06 07:59:15;;;;;;;1.15;1.00;;;;;;;;;;7365005;19;20007;-73
2023/08/06 08:01:40;;;;;;;2.80;1.00;;;;;;;;;;7363964;19;20759;-68
2023/08/06 08:04:05;;;;;;;1.35;0.80;;;;;;;;;;7363669;19;20003;-68
2023/08/06 08:06:30;;;;;;;1.42;1.00;;;;;;;;;;7364859;19;20007;-72
2023/08/06 08:08:56;;;;;;;4.28;1.00;;;;;;;;;;7387761;19;20011;-72
2023/08/06 08:11:21;;;;;;;1.08;1.00;;;;;;;;;;7364928;19;20058;-72
2023/08/06 08:13:46;;;;;;;1.63;0.93;;;;;;;;;;7365320;19;20082;-73
2023/08/06 08:16:12;;;;;;;0.88;0.88;;;;;;;;;;7364201;19;20611;-72
2023/08/06 08:18:37;;;;;;;0.75;0.75;;;;;;;;;;7365509;19;20015;-72
2023/08/06 08:21:02;;;;;;;1.00;0.90;;;;;;;;;;7363918;19;19998;-72
2023/08/06 08:23:28;;;;;;;0.70;0.70;;;;;;;;;;7384681;19;20006;-72
2023/08/06 08:25:53;;;;;;;1.02;0.80;;;;;;;;;;7364612;19;20031;-72
2023/08/06 08:28:19;;;;;;;0.90;0.70;;;;;;;;;;7365262;19;20469;-72
2023/08/06 08:30:44;;;;;;;0.80;0.80;;;;;;;;;;7364592;19;20006;-71
2023/08/06 08:33:10;;;;;;;0.90;0.90;;;;;;;;;;7359812;19;20051;-72
2023/08/06 08:35:36;;;;;;;0.80;0.73;;;;;;;;;;7386451;19;20015;-72
2023/08/06 08:38:01;;;;;;;1.98;0.80;;;;;;;;;;7364909;19;20010;-71
2023/08/06 08:40:31;;;;;;;1.25;0.93;;;;;;;;;;7374668;19;20029;-72
2023/08/06 08:43:01;;;;;;;0.73;0.73;;;;;;;;;;7393896;19;20035;-73
2023/08/06 08:45:29;;;;;;;0.75;0.70;;;;;;;;;;7380671;19;20010;-72
2023/08/06 08:47:55;;;;;;;0.80;0.80;;;;;;;;;;7395956;19;20100;-71
2023/08/06 08:50:21;;;;;;;1.50;0.90;;;;;;;;;;7380681;19;20799;-70
2023/08/06 08:52:48;;;;;;;0.80;0.80;;;;;;;;;;7378933;19;20010;-72
2023/08/06 08:55:15;;;;;;;0.73;0.65;;;;;;;;;;7370591;19;20476;-70
2023/08/06 08:57:40;;;;;;;1.02;0.85;;;;;;;;;;7372524;19;20027;-71
2023/08/06 09:00:06;;;;;;;0.60;0.60;;;;;;;;;;7372697;19;20014;-70
2023/08/06 09:02:34;;;;;;;2.10;0.75;;;;;;;;;;7392743;19;19995;-71
2023/08/06 09:05:04;;;;;;;1.23;1.10;;;;;;;;;;7368396;19;20105;-71
2023/08/06 09:07:34;;;;;;;0.68;0.68;;;;;;;;;;7371528;19;20014;-71
2023/08/06 09:10:03;;;;;;;1.00;0.80;;;;;;;;;;7369138;19;20018;-73
2023/08/06 09:12:29;;;;;;;1.30;0.65;;;;;;;;;;7372320;19;20099;-73
2023/08/06 09:14:54;;;;;;;0.60;0.60;;;;;;;;;;7390148;19;20406;-73
2023/08/06 09:17:20;;;;;;;3.35;1.00;;;;;;;;;;7369525;19;20037;-71
2023/08/06 09:19:48;;;;;;;1.55;1.02;;;;;;;;;;7370282;19;20014;-71
2023/08/06 09:22:13;;;;;;;1.20;1.10;;;;;;;;;;7370802;19;20014;-70
2023/08/06 09:24:41;;;;;;;2.45;1.00;;;;;;;;;;7369043;19;20018;-71
2023/08/06 09:27:13;;;;;;;0.80;0.80;;;;;;;;;;7369596;19;20010;-70
2023/08/06 09:29:43;;;;;;;1.40;0.80;;;;;;;;;;7392680;19;20424;-71
2023/08/06 09:32:09;;;;;;;1.25;1.05;;;;;;;;;;7369631;19;20013;-71
2023/08/06 09:34:34;;;;;;;0.80;0.80;;;;;;;;;;7366640;19;20006;-68
2023/08/06 09:36:59;;;;;;;0.70;0.70;;;;;;;;;;7370027;19;20010;-72
2023/08/06 09:39:29;;;;;;;0.80;0.80;;;;;;;;;;7369616;19;20129;-71
2023/08/06 09:42:00;;;;;;;1.85;0.90;;;;;;;;;;7391183;19;20002;-69
2023/08/06 09:44:28;;;;;;;0.70;0.70;;;;;;;;;;7369589;19;20014;-70
2023/08/06 09:46:55;;;;;;;0.60;0.60;;;;;;;;;;7367105;19;20031;-70
2023/08/06 09:49:27;;;;;;;0.75;0.75;;;;;;;;;;7369507;19;20007;-70
2023/08/06 09:51:55;;;;;;;0.68;0.68;;;;;;;;;;7359555;19;20006;-71
2023/08/06 09:54:23;;;;;;;1.90;0.73;;;;;;;;;;7370666;19;19995;-71
2023/08/06 09:56:48;;;;;;;1.30;0.75;;;;;;;;;;7393020;19;20010;-70
2023/08/06 09:59:15;;;;;;;1.45;0.70;;;;;;;;;;7370116;19;20002;-72
2023/08/06 10:01:41;;;;;;;0.70;0.65;;;;;;;;;;7366847;19;20688;-71
2023/08/06 10:04:11;;;;;;;2.03;0.80;;;;;;;;;;7367229;19;20005;-70
2023/08/06 10:06:37;;;;;;;0.70;0.70;;;;;;;;;;7369541;19;19998;-71
2023/08/06 10:09:04;;;;;;;0.82;0.82;;;;;;;;;;7370277;19;19999;-70
2023/08/06 10:11:30;;;;;;;0.60;0.60;;;;;;;;;;7392146;19;19995;-70
2023/08/06 10:14:03;;;;;;;0.82;0.77;;;;;;;;;;7368859;19;20021;-71
2023/08/06 10:16:29;;;;;;;0.60;0.60;;;;;;;;;;7372213;19;20016;-71
2023/08/06 10:18:57;;;;;;;0.50;0.50;;;;;;;;;;7392252;19;20032;-71
2023/08/06 10:21:24;;;;;;;0.75;0.75;;;;;;;;;;7403516;19;20017;-67
2023/08/06 10:23:54;;;;;;;0.60;0.60;;;;;;;;;;7408193;19;20015;-69
2023/08/06 10:26:29;;;;;;;0.70;0.70;;;;;;;;;;7373579;19;20043;-70
2023/08/06 10:28:55;;;;;;;1.27;0.70;;;;;;;;;;7370380;19;20009;-71
2023/08/06 10:31:40;;;;;;;0.80;0.80;;;;;;;;;;7369776;19;20450;-70
2023/08/06 10:34:05;;;;;;;0.70;0.70;;;;;;;;;;7367333;19;20382;-71
2023/08/06 10:36:32;;;;;;;0.68;0.68;;;;;;;;;;7370302;19;20067;-71
2023/08/06 10:38:58;;;;;;;0.50;0.50;;;;;;;;;;7387139;19;19999;-70
2023/08/06 10:41:30;;;;;;;0.70;0.70;;;;;;;;;;7369034;19;20010;-70
2023/08/06 10:44:08;;;;;;;2.05;0.80;;;;;;;;;;7363574;19;20007;-70
2023/08/06 10:46:34;;;;;;;1.42;0.65;;;;;;;;;;7369323;19;20045;-70
2023/08/06 10:48:59;;;;;;;0.93;0.60;;;;;;;;;;7368941;19;20663;-71
2023/08/06 10:51:25;;;;;;;0.40;0.40;;;;;;;;;;7368660;19;20462;-70
2023/08/06 10:53:51;;;;;;;1.30;1.20;;;;;;;;;;7388916;19;20062;-69
2023/08/06 10:56:25;;;;;;;0.60;0.60;;;;;;;;;;7373144;19;20003;-70
2023/08/06 10:58:53;;;;;;;0.57;0.57;;;;;;;;;;7375137;19;20465;-70
2023/08/06 11:01:18;;;;;;;0.80;0.80;;;;;;;;;;7373415;19;20003;-69
2023/08/06 11:03:45;;;;;;;0.47;0.47;;;;;;;;;;7369943;19;20006;-69
2023/08/06 11:06:17;;;;;;;0.30;0.30;;;;;;;;;;7369144;19;20010;-70
2023/08/06 11:08:48;;;;;;;0.40;0.40;;;;;;;;;;7392560;19;20003;-69
2023/08/06 11:11:14;;;;;;;;;;;;;;;;;;7370853;19;20073;-69
2023/08/06 11:13:46;;;;;;;0.60;0.60;;;;;;;;;;7369016;19;19922;-71
2023/08/06 11:16:14;;;;;;;1.17;0.40;;;;;;;;;;7370416;19;20081;-70
2023/08/06 11:18:40;;;;;;;0.40;0.40;;;;;;;;;;7370886;19;20087;-70
2023/08/06 11:21:06;;;;;;;1.08;0.63;;;;;;;;;;7370515;19;20018;-70
2023/08/06 11:23:31;;;;;;;0.68;0.68;;;;;;;;;;7388822;19;20011;-71
2023/08/06 11:25:57;;;;;;;0.50;0.50;;;;;;;;;;7360685;19;20647;-70
2023/08/06 11:28:23;;;;;;;0.65;0.50;;;;;;;;;;7365742;19;20492;-70
2023/08/06 11:30:51;;;;;;;0.52;0.52;;;;;;;;;;7362775;19;20417;-70
2023/08/06 11:33:25;;;;;;;0.47;0.47;;;;;;;;;;7362058;19;20074;-71
2023/08/06 11:35:51;;;;;;;0.88;0.77;;;;;;;;;;7389879;19;20010;-70
2023/08/06 11:38:16;;;;;;;1.00;0.80;;;;;;;;;;7365665;19;20094;-70
2023/08/06 11:40:45;;;;;;;0.40;0.40;;;;;;;;;;7365437;19;20084;-70
2023/08/06 11:43:10;;;;;;;0.63;0.63;;;;;;;;;;7364447;19;20003;-70
2023/08/06 11:45:36;;;;;;;0.85;0.60;;;;;;;;;;7363449;19;20014;-69
2023/08/06 11:48:01;;;;;;;0.57;0.57;;;;;;;;;;7369274;19;20027;-70
2023/08/06 11:50:27;;;;;;;2.22;0.80;;;;;;;;;;7387635;19;20547;-71
2023/08/06 11:52:54;;;;;;;0.85;0.82;;;;;;;;;;7364688;19;20374;-70
2023/08/06 11:55:23;;;;;;;1.05;0.90;;;;;;;;;;7365979;19;20003;-70
2023/08/06 11:57:49;;;;;;;0.88;0.80;;;;;;;;;;7363802;19;20002;-69
2023/08/06 12:00:16;;;;;;;4.78;0.80;;;;;;;;;;7365697;19;20070;-71
2023/08/06 12:02:43;;;;;;;1.10;0.75;;;;;;;;;;7385896;19;19999;-70
2023/08/06 12:05:12;;;;;;;1.33;1.05;;;;;;;;;;7363325;19;20616;-70
2023/08/06 12:07:48;;;;;;;1.92;0.90;;;;;;;;;;7365259;19;20503;-70
2023/08/06 12:10:15;;;;;;;0.98;0.70;;;;;;;;;;7366814;19;20547;-70
2023/08/06 12:12:40;;;;;;;0.90;0.90;;;;;;;;;;7365236;19;20010;-70
2023/08/06 12:15:07;;;;;;;1.42;0.93;;;;;;;;;;7364246;19;19998;-70
2023/08/06 12:17:32;;;;;;;1.20;1.10;;;;;;;;;;7385496;19;20009;-71
2023/08/06 12:19:58;;;;;;;1.10;1.00;;;;;;;;;;7365234;19;19999;-70
2023/08/06 12:22:23;;;;;;;1.25;1.00;;;;;;;;;;7364842;19;20016;-72
2023/08/06 12:24:49;;;;;;;1.15;1.00;;;;;;;;;;7362535;19;20034;-71
2023/08/06 12:27:16;;;;;;;0.93;0.90;;;;;;;;;;7373153;19;20007;-70
2023/08/06 12:29:48;;;;;;;1.17;0.98;;;;;;;;;;7393428;19;20002;-70
2023/08/06 12:32:14;;;;;;;0.98;0.90;;;;;;;;;;7372358;19;20077;-71
2023/08/06 12:34:40;;;;;;;2.20;1.20;;;;;;;;;;7369096;19;20013;-70
2023/08/06 12:37:07;;;;;;;1.88;1.20;;;;;;;;;;7371889;19;20011;-72
2023/08/06 12:39:33;;;;;;;1.02;0.95;;;;;;;;;;7371276;19;20745;-70
2023/08/06 12:41:59;;;;;;;1.95;1.17;;;;;;;;;;7393677;19;20070;-70
2023/08/06 12:44:25;;;;;;;2.83;1.40;;;;;;;;;;7369589;19;20006;-70
2023/08/06 12:46:51;;;;;;;1.17;1.05;;;;;;;;;;7368677;19;20101;-70
2023/08/06 12:49:17;;;;;;;1.92;1.20;;;;;;;;;;7366337;19;20048;-71
2023/08/06 12:51:42;;;;;;;1.80;1.10;;;;;;;;;;7370188;19;20469;-70
2023/08/06 12:54:08;;;;;;;2.05;1.20;;;;;;;;;;7368411;19;20006;-70
2023/08/06 12:56:34;;;;;;;1.00;1.00;;;;;;;;;;7391146;19;20006;-70
2023/08/06 12:58:59;;;;;;;3.83;1.20;;;;;;;;;;7369011;19;20018;-70
2023/08/06 13:01:25;;;;;;;1.67;1.00;;;;;;;;;;7368648;19;20013;-69
2023/08/06 13:03:50;;;;;;;2.72;1.30;;;;;;;;;;7367906;19;20151;-70
2023/08/06 13:06:15;;;;;;;2.80;1.23;;;;;;;;;;7369959;19;20344;-70
2023/08/06 13:08:40;;;;;;;2.13;1.20;;;;;;;;;;7392929;19;20677;-71
2023/08/06 13:11:06;;;;;;;1.92;1.27;;;;;;;;;;7370166;19;20014;-70
2023/08/06 13:13:31;;;;;;;1.20;1.10;;;;;;;;;;7370625;19;20014;-70
2023/08/06 13:15:56;;;;;;;2.05;1.30;;;;;;;;;;7371857;19;20423;-70
2023/08/06 13:18:22;;;;;;;1.70;1.10;;;;;;;;;;7371476;19;20014;-70
2023/08/06 13:20:49;;;;;;;2.42;1.20;;;;;;;;;;7392067;19;20025;-70
2023/08/06 13:23:16;;;;;;;2.50;1.30;;;;;;;;;;7368710;19;20010;-70
2023/08/06 13:25:42;;;;;;;2.25;1.20;;;;;;;;;;7370454;19;20015;-70
2023/08/06 13:28:08;;;;;;;1.95;1.23;;;;;;;;;;7369705;19;20010;-70
2023/08/06 13:30:35;;;;;;;1.98;1.00;;;;;;;;;;7371661;19;20035;-70
2023/08/06 13:33:01;;;;;;;0.88;0.80;;;;;;;;;;7383089;19;20011;-70
2023/08/06 13:35:26;;;;;;;1.52;0.82;;;;;;;;;;7386837;19;20011;-70
2023/08/06 13:37:52;;;;;;;1.30;0.80;;;;;;;;;;7369891;19;20084;-71
2023/08/06 13:40:17;;;;;;;1.35;0.82;;;;;;;;;;7372890;19;20065;-70
2023/08/06 13:42:42;;;;;;;1.17;0.93;;;;;;;;;;7368332;19;20386;-70
2023/08/06 13:45:08;;;;;;;1.35;1.02;;;;;;;;;;7366796;19;20148;-71
2023/08/06 13:47:34;;;;;;;0.95;0.60;;;;;;;;;;7391865;19;20006;-70
2023/08/06 13:49:59;;;;;;;0.82;0.70;;;;;;;;;;7369736;19;20018;-71
2023/08/06 13:52:27;;;;;;;1.73;0.70;;;;;;;;;;7370900;19;20709;-71
2023/08/06 13:54:53;;;;;;;2.03;0.95;;;;;;;;;;7368942;19;20031;-71
2023/08/06 13:57:18;;;;;;;0.80;0.80;;;;;;;;;;7369613;19;20010;-71
2023/08/06 13:59:43;;;;;;;0.82;0.80;;;;;;;;;;7393622;19;20038;-71
2023/08/06 14:02:09;;;;;;;2.13;1.00;;;;;;;;;;7372432;19;20094;-71
2023/08/06 14:04:35;;;;;;;1.38;0.60;;;;;;;;;;7369948;19;20035;-70
2023/08/06 14:07:00;;;;;;;1.30;0.82;;;;;;;;;;7370529;19;20368;-71
2023/08/06 14:09:25;;;;;;;1.17;0.80;;;;;;;;;;7372369;19;20010;-71
2023/08/06 14:11:51;;;;;;;1.45;0.82;;;;;;;;;;7393767;19;20027;-72
2023/08/06 14:14:16;;;;;;;0.80;0.70;;;;;;;;;;7373617;19;20010;-71
2023/08/06 14:16:41;;;;;;;3.00;1.00;;;;;;;;;;7404412;19;20034;-71
2023/08/06 14:19:07;;;;;;;0.60;0.60;;;;;;;;;;7410696;19;20006;-71
2023/08/06 14:21:32;;;;;;;2.67;1.10;;;;;;;;;;7395115;19;20597;-72
2023/08/06 14:23:57;;;;;;;3.05;1.30;;;;;;;;;;7391574;19;20014;-71
2023/08/06 14:26:23;;;;;;;1.35;1.00;;;;;;;;;;7367245;19;20018;-72
2023/08/06 14:28:48;;;;;;;1.05;0.85;;;;;;;;;;7370004;19;20011;-72
2023/08/06 14:31:13;;;;;;;2.20;1.00;;;;;;;;;;7361623;19;20082;-71
2023/08/06 14:33:39;;;;;;;1.92;1.10;;;;;;;;;;7367027;19;20006;-72
2023/08/06 14:36:04;;;;;;;1.10;0.90;;;;;;;;;;7365807;19;20033;-71
2023/08/06 14:38:29;;;;;;;1.23;0.77;;;;;;;;;;7387355;19;20001;-72
2023/08/06 14:40:55;;;;;;;1.35;0.70;;;;;;;;;;7367499;19;20033;-71
2023/08/06 14:43:20;;;;;;;0.50;0.50;;;;;;;;;;7363227;19;20479;-72
2023/08/06 14:45:45;;;;;;;0.80;0.60;;;;;;;;;;7362334;19;20014;-71
2023/08/06 14:48:11;;;;;;;0.57;0.57;;;;;;;;;;7366819;19;20694;-72
2023/08/06 14:50:36;;;;;;;0.75;0.60;;;;;;;;;;7388403;19;20078;-71
2023/08/06 14:53:02;;;;;;;1.48;0.50;;;;;;;;;;7367593;19;20054;-71
2023/08/06 14:55:28;;;;;;;0.65;0.63;;;;;;;;;;7365650;19;20014;-72